sensor_id;sensor_type;location;lat;lon;timestamp;pressure;altitude;pressure_sealevel;temperature;humidity
73600;BME280;61877;48.246;9.220;2023-06-14T00:02:22;93723.75;;;9.27;70.45
73600;BME280;61877;48.246;9.220;2023-06-14T00:04:47;93721.66;;;9.21;70.50
73600;BME280;61877;48.246;9.220;2023-06-14T00:07:13;93723.34;;;9.13;70.70
73600;BME280;61877;48.246;9.220;2023-06-14T00:09:38;93723.91;;;9.06;71.31
73600;BME280;61877;48.246;9.220;2023-06-14T00:12:04;93722.16;;;8.98;71.82
73600;BME280;61877;48.246;9.220;2023-06-14T00:14:29;93715.44;;;8.92;71.87
73600;BME280;61877;48.246;9.220;2023-06-14T00:16:55;93716.22;;;8.81;71.84
73600;BME280;61877;48.246;9.220;2023-06-14T00:19:22;93712.13;;;8.83;72.37
73600;BME280;61877;48.246;9.220;2023-06-14T00:21:47;93716.78;;;8.86;71.70
73600;BME280;61877;48.246;9.220;2023-06-14T00:24:13;93718.03;;;8.77;71.38
73600;BME280;61877;48.246;9.220;2023-06-14T00:26:38;93717.69;;;8.66;72.08
73600;BME280;61877;48.246;9.220;2023-06-14T00:29:04;93719.91;;;8.64;72.30
73600;BME280;61877;48.246;9.220;2023-06-14T00:31:29;93720.00;;;8.56;72.69
73600;BME280;61877;48.246;9.220;2023-06-14T00:33:55;93715.00;;;8.42;73.03
73600;BME280;61877;48.246;9.220;2023-06-14T00:36:22;93716.53;;;8.43;72.92
73600;BME280;61877;48.246;9.220;2023-06-14T00:38:49;93712.84;;;8.36;73.04
73600;BME280;61877;48.246;9.220;2023-06-14T00:41:15;93712.31;;;8.30;72.98
73600;BME280;61877;48.246;9.220;2023-06-14T00:43:40;93710.84;;;8.33;72.60
73600;BME280;61877;48.246;9.220;2023-06-14T00:46:06;93711.75;;;8.37;72.06
73600;BME280;61877;48.246;9.220;2023-06-14T00:48:31;93719.84;;;8.28;73.14
73600;BME280;61877;48.246;9.220;2023-06-14T00:50:58;93708.72;;;8.26;72.64
73600;BME280;61877;48.246;9.220;2023-06-14T00:53:27;93707.81;;;8.22;72.83
73600;BME280;61877;48.246;9.220;2023-06-14T00:55:52;93711.31;;;8.14;73.25
73600;BME280;61877;48.246;9.220;2023-06-14T00:58:18;93707.31;;;8.08;73.69
73600;BME280;61877;48.246;9.220;2023-06-14T01:00:43;93708.88;;;8.09;73.78
73600;BME280;61877;48.246;9.220;2023-06-14T01:03:09;93703.75;;;8.16;73.50
73600;BME280;61877;48.246;9.220;2023-06-14T01:05:34;93705.34;;;8.17;73.41
73600;BME280;61877;48.246;9.220;2023-06-14T01:08:14;93709.91;;;8.17;73.27
73600;BME280;61877;48.246;9.220;2023-06-14T01:10:50;93711.09;;;8.07;73.72
73600;BME280;61877;48.246;9.220;2023-06-14T01:13:20;93710.72;;;7.97;74.14
73600;BME280;61877;48.246;9.220;2023-06-14T01:15:47;93708.00;;;7.84;74.76
73600;BME280;61877;48.246;9.220;2023-06-14T01:18:13;93701.25;;;7.87;74.23
73600;BME280;61877;48.246;9.220;2023-06-14T01:20:39;93703.00;;;7.83;74.00
73600;BME280;61877;48.246;9.220;2023-06-14T01:23:08;93708.34;;;7.83;73.95
73600;BME280;61877;48.246;9.220;2023-06-14T01:25:33;93707.66;;;7.74;74.24
73600;BME280;61877;48.246;9.220;2023-06-14T01:28:01;93705.00;;;7.86;73.93
73600;BME280;61877;48.246;9.220;2023-06-14T01:30:29;93708.94;;;7.88;74.00
73600;BME280;61877;48.246;9.220;2023-06-14T01:32:55;93703.47;;;7.85;74.37
73600;BME280;61877;48.246;9.220;2023-06-14T01:35:22;93710.13;;;7.79;73.96
73600;BME280;61877;48.246;9.220;2023-06-14T01:37:48;93703.63;;;7.68;74.61
73600;BME280;61877;48.246;9.220;2023-06-14T01:40:17;93706.13;;;7.52;75.50
73600;BME280;61877;48.246;9.220;2023-06-14T01:42:44;93709.69;;;7.56;74.95
73600;BME280;61877;48.246;9.220;2023-06-14T01:45:11;93703.13;;;7.54;75.08
73600;BME280;61877;48.246;9.220;2023-06-14T01:47:37;93708.41;;;7.62;74.49
73600;BME280;61877;48.246;9.220;2023-06-14T01:50:03;93709.56;;;7.53;74.69
73600;BME280;61877;48.246;9.220;2023-06-14T01:52:29;93705.06;;;7.45;74.95
73600;BME280;61877;48.246;9.220;2023-06-14T01:54:54;93705.47;;;7.35;75.88
73600;BME280;61877;48.246;9.220;2023-06-14T01:57:22;93707.25;;;7.31;75.77
73600;BME280;61877;48.246;9.220;2023-06-14T01:59:47;93702.09;;;7.26;76.47
73600;BME280;61877;48.246;9.220;2023-06-14T02:02:13;93692.56;;;7.16;75.88
73600;BME280;61877;48.246;9.220;2023-06-14T02:04:39;93698.25;;;7.15;76.24
73600;BME280;61877;48.246;9.220;2023-06-14T02:07:05;93707.16;;;7.19;76.19
73600;BME280;61877;48.246;9.220;2023-06-14T02:09:31;93704.22;;;7.12;76.30
73600;BME280;61877;48.246;9.220;2023-06-14T02:11:59;93700.47;;;7.13;76.36
73600;BME280;61877;48.246;9.220;2023-06-14T02:14:26;93702.69;;;7.11;76.39
73600;BME280;61877;48.246;9.220;2023-06-14T02:16:52;93705.34;;;7.11;75.50
73600;BME280;61877;48.246;9.220;2023-06-14T02:19:17;93709.75;;;7.07;75.70
73600;BME280;61877;48.246;9.220;2023-06-14T02:21:43;93708.84;;;7.03;75.75
73600;BME280;61877;48.246;9.220;2023-06-14T02:24:08;93703.06;;;7.01;75.88
73600;BME280;61877;48.246;9.220;2023-06-14T02:26:34;93705.25;;;6.99;76.10
73600;BME280;61877;48.246;9.220;2023-06-14T02:29:00;93713.88;;;7.04;76.00
73600;BME280;61877;48.246;9.220;2023-06-14T02:31:26;93712.16;;;7.00;75.87
73600;BME280;61877;48.246;9.220;2023-06-14T02:33:52;93709.38;;;6.96;76.41
73600;BME280;61877;48.246;9.220;2023-06-14T02:36:18;93708.13;;;6.94;76.63
73600;BME280;61877;48.246;9.220;2023-06-14T02:38:43;93707.97;;;6.90;76.34
73600;BME280;61877;48.246;9.220;2023-06-14T02:41:09;93704.41;;;6.86;76.78
73600;BME280;61877;48.246;9.220;2023-06-14T02:43:34;93709.78;;;6.78;77.15
73600;BME280;61877;48.246;9.220;2023-06-14T02:45:59;93707.41;;;6.85;77.16
73600;BME280;61877;48.246;9.220;2023-06-14T02:48:27;93709.94;;;6.81;77.33
73600;BME280;61877;48.246;9.220;2023-06-14T02:50:53;93706.94;;;6.83;77.52
73600;BME280;61877;48.246;9.220;2023-06-14T02:53:18;93708.38;;;6.72;77.65
73600;BME280;61877;48.246;9.220;2023-06-14T02:55:46;93712.78;;;6.76;77.50
73600;BME280;61877;48.246;9.220;2023-06-14T02:58:12;93709.31;;;6.76;77.46
73600;BME280;61877;48.246;9.220;2023-06-14T03:00:37;93706.38;;;6.69;77.67
73600;BME280;61877;48.246;9.220;2023-06-14T03:03:03;93708.56;;;6.67;77.73
73600;BME280;61877;48.246;9.220;2023-06-14T03:05:30;93707.72;;;6.54;77.59
73600;BME280;61877;48.246;9.220;2023-06-14T03:07:55;93715.09;;;6.48;77.78
73600;BME280;61877;48.246;9.220;2023-06-14T03:10:23;93713.41;;;6.44;78.06
73600;BME280;61877;48.246;9.220;2023-06-14T03:12:49;93711.81;;;6.51;77.79
73600;BME280;61877;48.246;9.220;2023-06-14T03:15:15;93711.13;;;6.63;77.40
73600;BME280;61877;48.246;9.220;2023-06-14T03:17:40;93713.66;;;6.60;77.54
73600;BME280;61877;48.246;9.220;2023-06-14T03:20:07;93713.31;;;6.61;77.22
73600;BME280;61877;48.246;9.220;2023-06-14T03:22:34;93719.13;;;6.63;77.37
73600;BME280;61877;48.246;9.220;2023-06-14T03:25:01;93710.38;;;6.54;77.38
73600;BME280;61877;48.246;9.220;2023-06-14T03:27:27;93707.56;;;6.50;77.69
73600;BME280;61877;48.246;9.220;2023-06-14T03:29:55;93701.44;;;6.50;78.32
73600;BME280;61877;48.246;9.220;2023-06-14T03:32:21;93713.28;;;6.70;77.10
73600;BME280;61877;48.246;9.220;2023-06-14T03:34:46;93712.34;;;6.66;77.88
73600;BME280;61877;48.246;9.220;2023-06-14T03:37:12;93717.34;;;6.67;77.81
73600;BME280;61877;48.246;9.220;2023-06-14T03:39:40;93715.06;;;6.86;77.08
73600;BME280;61877;48.246;9.220;2023-06-14T03:42:06;93725.19;;;6.72;77.33
73600;BME280;61877;48.246;9.220;2023-06-14T03:44:32;93724.66;;;6.79;77.24
73600;BME280;61877;48.246;9.220;2023-06-14T03:46:58;93722.31;;;6.77;77.10
73600;BME280;61877;48.246;9.220;2023-06-14T03:49:23;93722.00;;;6.79;77.80
73600;BME280;61877;48.246;9.220;2023-06-14T03:51:52;93734.25;;;6.80;77.35
73600;BME280;61877;48.246;9.220;2023-06-14T03:54:17;93737.03;;;6.83;77.42
73600;BME280;61877;48.246;9.220;2023-06-14T03:56:45;93733.63;;;6.74;77.49
73600;BME280;61877;48.246;9.220;2023-06-14T03:59:10;93739.28;;;6.73;77.31
73600;BME280;61877;48.246;9.220;2023-06-14T04:01:36;93742.50;;;6.87;77.72
73600;BME280;61877;48.246;9.220;2023-06-14T04:04:02;93749.81;;;6.98;76.77
73600;BME280;61877;48.246;9.220;2023-06-14T04:06:27;93740.72;;;6.99;76.87
73600;BME280;61877;48.246;9.220;2023-06-14T04:08:53;93741.91;;;7.10;76.23
73600;BME280;61877;48.246;9.220;2023-06-14T04:11:18;93740.66;;;7.08;75.53
73600;BME280;61877;48.246;9.220;2023-06-14T04:13:45;93751.78;;;7.10;75.71
73600;BME280;61877;48.246;9.220;2023-06-14T04:16:11;93751.59;;;7.15;76.27
73600;BME280;61877;48.246;9.220;2023-06-14T04:18:37;93753.16;;;7.36;76.01
73600;BME280;61877;48.246;9.220;2023-06-14T04:21:02;93753.78;;;7.42;74.11
73600;BME280;61877;48.246;9.220;2023-06-14T04:23:28;93757.34;;;7.46;74.63
73600;BME280;61877;48.246;9.220;2023-06-14T04:25:53;93764.31;;;7.59;74.70
73600;BME280;61877;48.246;9.220;2023-06-14T04:28:19;93763.88;;;7.77;73.92
73600;BME280;61877;48.246;9.220;2023-06-14T04:30:46;93764.22;;;7.88;73.50
73600;BME280;61877;48.246;9.220;2023-06-14T04:33:12;93770.75;;;7.99;72.66
73600;BME280;61877;48.246;9.220;2023-06-14T04:35:40;93769.63;;;8.00;72.53
73600;BME280;61877;48.246;9.220;2023-06-14T04:38:06;93756.09;;;8.17;72.28
73600;BME280;61877;48.246;9.220;2023-06-14T04:40:32;93763.84;;;8.31;71.59
73600;BME280;61877;48.246;9.220;2023-06-14T04:42:59;93763.78;;;8.51;70.88
73600;BME280;61877;48.246;9.220;2023-06-14T04:45:24;93764.81;;;8.59;71.08
73600;BME280;61877;48.246;9.220;2023-06-14T04:47:51;93770.72;;;8.76;70.25
73600;BME280;61877;48.246;9.220;2023-06-14T04:50:20;93771.97;;;8.91;70.10
73600;BME280;61877;48.246;9.220;2023-06-14T04:52:45;93768.72;;;9.09;69.45
73600;BME280;61877;48.246;9.220;2023-06-14T04:55:11;93771.19;;;9.27;68.77
73600;BME280;61877;48.246;9.220;2023-06-14T04:57:36;93774.84;;;9.46;67.68
73600;BME280;61877;48.246;9.220;2023-06-14T05:00:08;93770.03;;;9.52;67.40
73600;BME280;61877;48.246;9.220;2023-06-14T05:02:34;93774.59;;;9.51;67.58
73600;BME280;61877;48.246;9.220;2023-06-14T05:05:10;93765.53;;;9.56;66.79
73600;BME280;61877;48.246;9.220;2023-06-14T05:07:36;93766.31;;;9.68;67.09
73600;BME280;61877;48.246;9.220;2023-06-14T05:10:02;93759.97;;;9.88;66.18
73600;BME280;61877;48.246;9.220;2023-06-14T05:12:28;93765.50;;;10.07;65.23
73600;BME280;61877;48.246;9.220;2023-06-14T05:14:54;93762.91;;;10.23;64.91
73600;BME280;61877;48.246;9.220;2023-06-14T05:17:20;93762.78;;;10.47;64.02
73600;BME280;61877;48.246;9.220;2023-06-14T05:19:48;93770.25;;;10.69;64.15
73600;BME280;61877;48.246;9.220;2023-06-14T05:22:22;93759.97;;;11.02;63.04
73600;BME280;61877;48.246;9.220;2023-06-14T05:24:48;93763.41;;;11.18;61.81
73600;BME280;61877;48.246;9.220;2023-06-14T05:27:14;93760.63;;;11.15;61.35
73600;BME280;61877;48.246;9.220;2023-06-14T05:29:40;93756.88;;;11.19;62.88
73600;BME280;61877;48.246;9.220;2023-06-14T05:32:06;93767.00;;;11.41;63.02
73600;BME280;61877;48.246;9.220;2023-06-14T05:34:32;93763.97;;;11.78;61.22
73600;BME280;61877;48.246;9.220;2023-06-14T05:36:58;93767.97;;;12.03;60.59
73600;BME280;61877;48.246;9.220;2023-06-14T05:39:27;93762.19;;;12.20;59.62
73600;BME280;61877;48.246;9.220;2023-06-14T05:41:53;93760.81;;;12.48;58.83
73600;BME280;61877;48.246;9.220;2023-06-14T05:44:19;93753.34;;;12.61;57.78
73600;BME280;61877;48.246;9.220;2023-06-14T05:46:44;93762.63;;;12.86;57.20
73600;BME280;61877;48.246;9.220;2023-06-14T05:49:10;93768.53;;;12.95;57.21
73600;BME280;61877;48.246;9.220;2023-06-14T05:51:39;93765.53;;;13.19;57.13
73600;BME280;61877;48.246;9.220;2023-06-14T05:54:05;93770.84;;;13.16;55.62
73600;BME280;61877;48.246;9.220;2023-06-14T05:56:32;93770.38;;;13.10;56.23
73600;BME280;61877;48.246;9.220;2023-06-14T05:58:58;93767.38;;;13.15;55.78
73600;BME280;61877;48.246;9.220;2023-06-14T06:01:23;93763.88;;;13.37;55.54
73600;BME280;61877;48.246;9.220;2023-06-14T06:03:49;93758.44;;;13.60;55.53
73600;BME280;61877;48.246;9.220;2023-06-14T06:06:15;93764.34;;;13.69;54.34
73600;BME280;61877;48.246;9.220;2023-06-14T06:08:41;93762.78;;;13.94;54.39
73600;BME280;61877;48.246;9.220;2023-06-14T06:11:06;93766.19;;;14.20;51.88
73600;BME280;61877;48.246;9.220;2023-06-14T06:13:35;93767.22;;;14.39;51.35
73600;BME280;61877;48.246;9.220;2023-06-14T06:16:01;93772.09;;;14.63;51.80
73600;BME280;61877;48.246;9.220;2023-06-14T06:28:41;93782.34;;;15.71;48.35
73600;BME280;61877;48.246;9.220;2023-06-14T06:31:07;93781.66;;;15.81;48.12
73600;BME280;61877;48.246;9.220;2023-06-14T06:33:32;93782.06;;;15.86;47.96
73600;BME280;61877;48.246;9.220;2023-06-14T06:35:58;93785.22;;;15.92;47.31
73600;BME280;61877;48.246;9.220;2023-06-14T06:38:23;93779.59;;;16.32;47.78
73600;BME280;61877;48.246;9.220;2023-06-14T06:40:49;93772.34;;;16.50;46.70
73600;BME280;61877;48.246;9.220;2023-06-14T06:43:14;93781.31;;;16.61;45.96
73600;BME280;61877;48.246;9.220;2023-06-14T06:45:41;93775.19;;;16.89;45.59
73600;BME280;61877;48.246;9.220;2023-06-14T06:48:06;93771.38;;;17.14;44.54
73600;BME280;61877;48.246;9.220;2023-06-14T06:50:32;93779.13;;;17.37;44.14
73600;BME280;61877;48.246;9.220;2023-06-14T06:52:58;93768.34;;;17.51;43.66
73600;BME280;61877;48.246;9.220;2023-06-14T06:55:25;93774.50;;;17.76;41.20
73600;BME280;61877;48.246;9.220;2023-06-14T06:57:51;93769.00;;;18.18;41.37
73600;BME280;61877;48.246;9.220;2023-06-14T07:00:17;93776.69;;;18.44;41.19
73600;BME280;61877;48.246;9.220;2023-06-14T07:02:44;93778.94;;;18.67;39.61
73600;BME280;61877;48.246;9.220;2023-06-14T07:05:09;93785.00;;;18.92;38.35
73600;BME280;61877;48.246;9.220;2023-06-14T07:07:35;93778.03;;;18.94;36.88
73600;BME280;61877;48.246;9.220;2023-06-14T07:10:01;93781.03;;;19.10;39.25
73600;BME280;61877;48.246;9.220;2023-06-14T07:12:26;93774.03;;;19.16;40.65
73600;BME280;61877;48.246;9.220;2023-06-14T07:14:52;93779.28;;;19.45;38.61
73600;BME280;61877;48.246;9.220;2023-06-14T07:17:17;93779.50;;;19.68;37.45
73600;BME280;61877;48.246;9.220;2023-06-14T07:19:44;93784.09;;;19.78;38.18
73600;BME280;61877;48.246;9.220;2023-06-14T07:22:10;93787.09;;;19.87;36.64
73600;BME280;61877;48.246;9.220;2023-06-14T07:24:37;93789.09;;;19.83;36.18
73600;BME280;61877;48.246;9.220;2023-06-14T07:27:03;93788.38;;;19.75;36.41
73600;BME280;61877;48.246;9.220;2023-06-14T07:29:29;93787.78;;;19.98;36.27
73600;BME280;61877;48.246;9.220;2023-06-14T07:31:57;93787.97;;;20.21;36.97
73600;BME280;61877;48.246;9.220;2023-06-14T07:34:22;93786.28;;;20.34;34.88
73600;BME280;61877;48.246;9.220;2023-06-14T07:36:50;93786.13;;;20.48;35.01
73600;BME280;61877;48.246;9.220;2023-06-14T07:39:15;93789.59;;;20.52;36.34
73600;BME280;61877;48.246;9.220;2023-06-14T07:41:41;93793.50;;;20.81;35.05
73600;BME280;61877;48.246;9.220;2023-06-14T07:44:07;93788.28;;;20.97;33.62
73600;BME280;61877;48.246;9.220;2023-06-14T07:46:33;93787.47;;;21.00;33.95
73600;BME280;61877;48.246;9.220;2023-06-14T07:48:58;93795.19;;;21.05;32.27
73600;BME280;61877;48.246;9.220;2023-06-14T07:51:24;93792.38;;;21.12;32.59
73600;BME280;61877;48.246;9.220;2023-06-14T07:53:51;93787.06;;;21.28;32.51
73600;BME280;61877;48.246;9.220;2023-06-14T07:56:17;93800.03;;;21.21;32.00
73600;BME280;61877;48.246;9.220;2023-06-14T07:58:42;93795.78;;;21.20;30.30
73600;BME280;61877;48.246;9.220;2023-06-14T08:01:08;93786.56;;;21.37;30.45
73600;BME280;61877;48.246;9.220;2023-06-14T08:03:34;93785.94;;;21.79;31.98
73600;BME280;61877;48.246;9.220;2023-06-14T08:06:00;93785.50;;;22.04;30.90
73600;BME280;61877;48.246;9.220;2023-06-14T08:08:28;93794.00;;;22.09;32.02
73600;BME280;61877;48.246;9.220;2023-06-14T08:11:07;93787.19;;;21.98;30.32
73600;BME280;61877;48.246;9.220;2023-06-14T08:13:33;93789.69;;;21.89;31.81
73600;BME280;61877;48.246;9.220;2023-06-14T08:15:59;93782.91;;;22.20;28.91
73600;BME280;61877;48.246;9.220;2023-06-14T08:18:26;93793.38;;;22.02;29.66
73600;BME280;61877;48.246;9.220;2023-06-14T08:20:52;93788.22;;;22.50;31.20
73600;BME280;61877;48.246;9.220;2023-06-14T08:23:18;93799.31;;;22.62;29.36
73600;BME280;61877;48.246;9.220;2023-06-14T08:25:43;93796.38;;;22.92;28.71
73600;BME280;61877;48.246;9.220;2023-06-14T08:28:10;93794.41;;;22.93;28.23
73600;BME280;61877;48.246;9.220;2023-06-14T08:30:36;93798.75;;;22.71;27.59
73600;BME280;61877;48.246;9.220;2023-06-14T08:33:01;93797.00;;;22.61;28.42
73600;BME280;61877;48.246;9.220;2023-06-14T08:35:27;93808.19;;;23.25;29.25
73600;BME280;61877;48.246;9.220;2023-06-14T08:37:52;93802.03;;;23.21;26.55
73600;BME280;61877;48.246;9.220;2023-06-14T08:40:20;93802.13;;;22.98;25.85
73600;BME280;61877;48.246;9.220;2023-06-14T08:42:49;93792.22;;;23.04;27.60
73600;BME280;61877;48.246;9.220;2023-06-14T08:45:17;93804.63;;;23.28;27.40
73600;BME280;61877;48.246;9.220;2023-06-14T08:47:43;93812.06;;;23.63;26.26
73600;BME280;61877;48.246;9.220;2023-06-14T08:50:10;93802.97;;;24.02;26.94
73600;BME280;61877;48.246;9.220;2023-06-14T08:52:38;93808.81;;;23.52;28.64
73600;BME280;61877;48.246;9.220;2023-06-14T08:55:05;93808.16;;;23.80;26.27
73600;BME280;61877;48.246;9.220;2023-06-14T08:57:31;93802.72;;;24.12;26.12
73600;BME280;61877;48.246;9.220;2023-06-14T08:59:57;93806.28;;;24.09;26.91
73600;BME280;61877;48.246;9.220;2023-06-14T09:02:25;93803.56;;;24.54;27.25
73600;BME280;61877;48.246;9.220;2023-06-14T09:04:51;93802.00;;;24.24;26.28
73600;BME280;61877;48.246;9.220;2023-06-14T09:07:17;93806.22;;;24.74;26.57
73600;BME280;61877;48.246;9.220;2023-06-14T09:09:42;93808.06;;;25.05;25.71
73600;BME280;61877;48.246;9.220;2023-06-14T09:12:10;93804.44;;;25.08;24.58
73600;BME280;61877;48.246;9.220;2023-06-14T09:14:35;93811.72;;;25.15;25.55
73600;BME280;61877;48.246;9.220;2023-06-14T09:17:01;93815.13;;;25.19;25.10
73600;BME280;61877;48.246;9.220;2023-06-14T09:19:28;93802.25;;;25.16;25.15
73600;BME280;61877;48.246;9.220;2023-06-14T09:21:54;93812.59;;;25.12;26.44
73600;BME280;61877;48.246;9.220;2023-06-14T09:24:19;93814.09;;;24.72;26.15
73600;BME280;61877;48.246;9.220;2023-06-14T09:26:47;93808.78;;;25.22;25.51
73600;BME280;61877;48.246;9.220;2023-06-14T09:29:12;93811.53;;;25.34;25.01
73600;BME280;61877;48.246;9.220;2023-06-14T09:31:37;93814.97;;;25.51;26.21
73600;BME280;61877;48.246;9.220;2023-06-14T09:34:03;93813.75;;;25.52;25.48
73600;BME280;61877;48.246;9.220;2023-06-14T09:36:31;93831.06;;;25.65;25.39
73600;BME280;61877;48.246;9.220;2023-06-14T09:38:59;93816.97;;;25.88;24.58
73600;BME280;61877;48.246;9.220;2023-06-14T09:41:31;93822.13;;;26.24;25.27
73600;BME280;61877;48.246;9.220;2023-06-14T09:43:58;93818.81;;;26.29;24.86
73600;BME280;61877;48.246;9.220;2023-06-14T09:46:23;93819.31;;;26.96;25.08
73600;BME280;61877;48.246;9.220;2023-06-14T09:48:49;93817.47;;;26.33;25.58
73600;BME280;61877;48.246;9.220;2023-06-14T09:51:15;93823.25;;;26.26;25.28
73600;BME280;61877;48.246;9.220;2023-06-14T09:53:43;93814.78;;;25.96;25.76
73600;BME280;61877;48.246;9.220;2023-06-14T09:56:11;93813.72;;;26.40;25.54
73600;BME280;61877;48.246;9.220;2023-06-14T09:58:39;93806.81;;;26.35;25.49
73600;BME280;61877;48.246;9.220;2023-06-14T10:01:08;93805.84;;;26.63;25.55
73600;BME280;61877;48.246;9.220;2023-06-14T10:03:34;93809.28;;;25.83;25.48
73600;BME280;61877;48.246;9.220;2023-06-14T10:06:03;93813.59;;;26.43;25.13
73600;BME280;61877;48.246;9.220;2023-06-14T10:08:33;93816.09;;;27.19;24.94
73600;BME280;61877;48.246;9.220;2023-06-14T10:11:03;93816.22;;;27.15;23.35
73600;BME280;61877;48.246;9.220;2023-06-14T10:13:34;93810.28;;;25.52;24.80
73600;BME280;61877;48.246;9.220;2023-06-14T10:16:05;93810.97;;;26.40;24.77
73600;BME280;61877;48.246;9.220;2023-06-14T10:18:40;93817.19;;;27.43;24.67
73600;BME280;61877;48.246;9.220;2023-06-14T10:21:13;93825.78;;;28.06;23.69
73600;BME280;61877;48.246;9.220;2023-06-14T10:23:43;93819.38;;;27.78;24.05
73600;BME280;61877;48.246;9.220;2023-06-14T10:26:18;93814.13;;;26.98;23.67
73600;BME280;61877;48.246;9.220;2023-06-14T10:28:56;93810.56;;;27.92;22.79
73600;BME280;61877;48.246;9.220;2023-06-14T10:31:22;93818.13;;;27.79;23.26
73600;BME280;61877;48.246;9.220;2023-06-14T10:33:55;93818.31;;;26.90;24.18
73600;BME280;61877;48.246;9.220;2023-06-14T10:36:26;93817.00;;;27.68;23.61
73600;BME280;61877;48.246;9.220;2023-06-14T10:38:57;93813.66;;;27.64;22.45
73600;BME280;61877;48.246;9.220;2023-06-14T10:41:26;93808.03;;;27.03;23.52
73600;BME280;61877;48.246;9.220;2023-06-14T10:43:52;93808.09;;;27.12;23.93
73600;BME280;61877;48.246;9.220;2023-06-14T10:46:18;93807.81;;;27.62;24.38
73600;BME280;61877;48.246;9.220;2023-06-14T10:48:45;93805.19;;;27.89;22.73
73600;BME280;61877;48.246;9.220;2023-06-14T10:51:17;93807.88;;;29.32;22.30
73600;BME280;61877;48.246;9.220;2023-06-14T10:53:43;93815.97;;;29.53;21.23
73600;BME280;61877;48.246;9.220;2023-06-14T10:56:25;93812.19;;;28.21;21.92
73600;BME280;61877;48.246;9.220;2023-06-14T10:58:51;93808.78;;;27.77;22.89
73600;BME280;61877;48.246;9.220;2023-06-14T11:01:19;93807.75;;;27.83;23.41
73600;BME280;61877;48.246;9.220;2023-06-14T11:03:52;93805.19;;;28.38;23.77
73600;BME280;61877;48.246;9.220;2023-06-14T11:06:22;93807.56;;;26.83;23.80
73600;BME280;61877;48.246;9.220;2023-06-14T11:11:58;93812.69;;;26.25;24.95
73600;BME280;61877;48.246;9.220;2023-06-14T11:14:26;93809.03;;;26.75;23.75
73600;BME280;61877;48.246;9.220;2023-06-14T11:16:54;93805.13;;;27.49;23.61
73600;BME280;61877;48.246;9.220;2023-06-14T11:19:21;93803.31;;;27.86;24.08
73600;BME280;61877;48.246;9.220;2023-06-14T11:21:48;93809.56;;;28.75;22.51
73600;BME280;61877;48.246;9.220;2023-06-14T11:24:13;93808.78;;;28.83;21.20
73600;BME280;61877;48.246;9.220;2023-06-14T11:26:40;93810.88;;;28.43;21.32
73600;BME280;61877;48.246;9.220;2023-06-14T11:29:08;93806.94;;;28.53;22.00
73600;BME280;61877;48.246;9.220;2023-06-14T11:31:34;93808.47;;;28.81;22.81
73600;BME280;61877;48.246;9.220;2023-06-14T11:34:00;93807.25;;;29.28;21.18
73600;BME280;61877;48.246;9.220;2023-06-14T11:36:27;93805.25;;;28.92;21.29
73600;BME280;61877;48.246;9.220;2023-06-14T11:38:58;93801.66;;;30.05;20.64
73600;BME280;61877;48.246;9.220;2023-06-14T11:41:24;93813.75;;;30.26;20.19
73600;BME280;61877;48.246;9.220;2023-06-14T11:43:52;93808.47;;;29.45;21.08
73600;BME280;61877;48.246;9.220;2023-06-14T11:46:20;93812.94;;;28.88;21.38
73600;BME280;61877;48.246;9.220;2023-06-14T11:48:49;93804.09;;;27.86;21.49
73600;BME280;61877;48.246;9.220;2023-06-14T11:51:14;93809.59;;;28.17;22.17
73600;BME280;61877;48.246;9.220;2023-06-14T11:53:42;93808.72;;;29.56;21.92
73600;BME280;61877;48.246;9.220;2023-06-14T11:56:08;93813.84;;;29.39;20.72
73600;BME280;61877;48.246;9.220;2023-06-14T11:58:34;93803.41;;;28.98;20.43
73600;BME280;61877;48.246;9.220;2023-06-14T12:00:59;93804.03;;;29.29;20.32
73600;BME280;61877;48.246;9.220;2023-06-14T12:03:26;93800.84;;;29.81;21.57
73600;BME280;61877;48.246;9.220;2023-06-14T12:06:03;93798.25;;;30.43;19.34
73600;BME280;61877;48.246;9.220;2023-06-14T12:08:34;93803.66;;;30.05;19.35
73600;BME280;61877;48.246;9.220;2023-06-14T12:11:00;93801.28;;;29.89;19.40
73600;BME280;61877;48.246;9.220;2023-06-14T12:13:26;93794.22;;;30.68;19.63
73600;BME280;61877;48.246;9.220;2023-06-14T12:15:55;93804.34;;;30.80;18.84
73600;BME280;61877;48.246;9.220;2023-06-14T12:18:35;93808.81;;;30.77;18.32
73600;BME280;61877;48.246;9.220;2023-06-14T12:21:02;93795.28;;;28.58;20.42
73600;BME280;61877;48.246;9.220;2023-06-14T12:23:39;93799.38;;;27.35;22.06
73600;BME280;61877;48.246;9.220;2023-06-14T12:26:09;93795.00;;;26.47;23.04
73600;BME280;61877;48.246;9.220;2023-06-14T12:28:34;93804.31;;;25.91;24.94
73600;BME280;61877;48.246;9.220;2023-06-14T12:31:00;93808.41;;;27.66;22.43
73600;BME280;61877;48.246;9.220;2023-06-14T12:33:26;93801.31;;;28.17;22.12
73600;BME280;61877;48.246;9.220;2023-06-14T12:35:55;93803.88;;;28.60;20.57
73600;BME280;61877;48.246;9.220;2023-06-14T12:38:21;93802.03;;;28.93;20.90
73600;BME280;61877;48.246;9.220;2023-06-14T12:40:50;93800.56;;;29.70;19.60
73600;BME280;61877;48.246;9.220;2023-06-14T12:43:16;93800.13;;;29.63;19.34
73600;BME280;61877;48.246;9.220;2023-06-14T12:45:42;93803.75;;;29.09;20.26
73600;BME280;61877;48.246;9.220;2023-06-14T12:48:10;93794.84;;;30.48;19.74
73600;BME280;61877;48.246;9.220;2023-06-14T12:50:36;93797.91;;;31.35;18.39
73600;BME280;61877;48.246;9.220;2023-06-14T12:53:03;93800.59;;;31.21;18.29
73600;BME280;61877;48.246;9.220;2023-06-14T12:55:29;93798.84;;;30.94;18.80
73600;BME280;61877;48.246;9.220;2023-06-14T12:57:55;93803.56;;;30.32;19.70
73600;BME280;61877;48.246;9.220;2023-06-14T13:00:21;93801.69;;;30.85;19.51
73600;BME280;61877;48.246;9.220;2023-06-14T13:02:46;93810.34;;;30.78;20.00
73600;BME280;61877;48.246;9.220;2023-06-14T13:05:12;93813.97;;;31.22;18.18
73600;BME280;61877;48.246;9.220;2023-06-14T13:07:37;93810.53;;;31.13;17.78
73600;BME280;61877;48.246;9.220;2023-06-14T13:10:05;93809.00;;;31.35;18.38
73600;BME280;61877;48.246;9.220;2023-06-14T13:12:30;93809.50;;;30.63;18.03
73600;BME280;61877;48.246;9.220;2023-06-14T13:14:56;93801.66;;;30.38;19.01
73600;BME280;61877;48.246;9.220;2023-06-14T13:17:21;93806.53;;;29.78;19.98